createdAt,value
2023-02-04T00:02:31.870Z,41.50
2023-02-04T00:07:34.664Z,41.62
2023-02-04T00:12:38.806Z,41.74
2023-02-04T00:17:41.586Z,41.81
2023-02-04T00:22:44.367Z,41.70
2023-02-04T00:27:48.481Z,41.67
2023-02-04T00:32:54.674Z,42.04
2023-02-04T00:37:57.536Z,41.85
2023-02-04T00:43:03.366Z,42.20
2023-02-04T00:48:06.446Z,41.93
2023-02-04T00:53:09.881Z,42.24
2023-02-04T00:58:13.977Z,41.99
2023-02-04T01:03:17.163Z,42.34
2023-02-04T01:08:19.950Z,42.26
2023-02-04T01:13:24.154Z,42.39
2023-02-04T01:18:27.065Z,42.28
2023-02-04T01:23:29.841Z,42.46
2023-02-04T01:28:34.029Z,42.48
2023-02-04T01:33:36.824Z,42.29
2023-02-04T01:38:39.637Z,42.25
2023-02-04T01:43:43.840Z,42.49
2023-02-04T01:48:47.906Z,42.55
2023-02-04T01:53:50.744Z,42.50
2023-02-04T01:58:55.745Z,42.61
2023-02-04T02:03:58.479Z,42.62
2023-02-04T02:09:01.364Z,42.63
2023-02-04T02:14:06.008Z,42.55
2023-02-04T02:19:08.991Z,42.41
2023-02-04T02:24:26.014Z,42.70
2023-02-04T02:29:29.357Z,42.56
2023-02-04T02:34:32.205Z,42.74
2023-02-04T02:39:36.368Z,42.66
2023-02-04T02:44:39.123Z,42.70
2023-02-04T02:49:42.432Z,42.54
2023-02-04T02:54:46.576Z,42.60
2023-02-04T02:59:51.286Z,42.72
2023-02-04T03:04:55.220Z,43.10
2023-02-04T03:10:02.842Z,42.87
2023-02-04T03:15:06.239Z,42.87
2023-02-04T03:20:09.911Z,43.28
2023-02-04T03:25:16.634Z,43.30
2023-02-04T03:30:19.488Z,43.41
2023-02-04T03:35:22.230Z,43.23
2023-02-04T03:40:26.308Z,43.28
2023-02-04T03:45:37.475Z,43.29
2023-02-04T03:50:46.729Z,43.40
2023-02-04T03:55:50.959Z,43.38
2023-02-04T04:00:53.715Z,43.55
2023-02-04T04:05:56.466Z,43.68
2023-02-04T04:11:00.578Z,43.42
2023-02-04T04:16:04.880Z,43.57
2023-02-04T04:21:07.694Z,43.45
2023-02-04T04:26:11.799Z,43.55
2023-02-04T04:31:14.904Z,43.43
2023-02-04T04:36:17.787Z,43.64
2023-02-04T04:41:22.000Z,43.62
2023-02-04T04:46:25.211Z,43.62
2023-02-04T04:51:31.761Z,43.70
2023-02-04T04:56:36.023Z,43.60
2023-02-04T05:01:39.104Z,43.70
2023-02-04T05:06:41.976Z,43.55
2023-02-04T05:11:48.001Z,43.72
2023-02-04T05:16:50.831Z,43.78
2023-02-04T05:21:53.636Z,43.65
2023-02-04T05:26:57.748Z,43.71
2023-02-04T05:32:00.704Z,43.84
2023-02-04T05:37:03.477Z,43.67
2023-02-04T05:42:07.732Z,43.83
2023-02-04T05:47:10.485Z,44.13
2023-02-04T05:52:13.292Z,44.14
2023-02-04T05:57:17.420Z,44.03
2023-02-04T06:02:20.243Z,44.05
2023-02-04T06:07:23.043Z,44.18
2023-02-04T06:12:27.304Z,44.21
2023-02-04T06:17:30.189Z,44.34
2023-02-04T06:22:33.074Z,44.04
2023-02-04T06:27:37.177Z,44.10
2023-02-04T06:32:39.934Z,44.34
2023-02-04T06:37:42.720Z,44.35
2023-02-04T06:42:46.914Z,44.45
2023-02-04T06:47:49.728Z,44.68
2023-02-04T06:52:52.467Z,44.72
2023-02-04T06:57:56.555Z,44.88
2023-02-04T07:03:00.177Z,44.87
2023-02-04T07:08:03.208Z,44.93
2023-02-04T07:13:07.368Z,45.20
2023-02-04T07:18:10.302Z,45.28
2023-02-04T07:23:13.055Z,45.45
2023-02-04T07:28:17.282Z,45.48
2023-02-04T07:33:20.179Z,45.37
2023-02-04T07:38:22.987Z,45.48
2023-02-04T07:43:27.149Z,45.82
2023-02-04T07:48:30.509Z,45.67
2023-02-04T07:53:33.298Z,45.79
2023-02-04T07:58:37.572Z,46.20
2023-02-04T08:03:41.853Z,46.45
2023-02-04T08:08:44.725Z,45.24
2023-02-04T08:13:49.018Z,43.84
2023-02-04T08:18:51.827Z,42.25
2023-02-04T08:23:54.589Z,40.33
2023-02-04T08:28:58.732Z,33.73
2023-02-04T08:34:01.560Z,31.26
2023-02-04T08:39:04.342Z,32.50
2023-02-04T08:44:12.129Z,34.01
2023-02-04T08:49:15.041Z,34.80
2023-02-04T08:54:18.005Z,35.14
2023-02-04T08:59:24.076Z,36.24
2023-02-04T09:04:28.376Z,36.84
2023-02-04T09:09:31.214Z,37.08
2023-02-04T09:14:35.496Z,37.90
2023-02-04T09:19:38.219Z,38.31
2023-02-04T09:24:41.013Z,38.91
2023-02-04T09:29:45.160Z,38.50
2023-02-04T09:34:47.942Z,38.95
2023-02-04T09:39:50.699Z,39.13
2023-02-04T09:44:55.140Z,39.16
2023-02-04T09:49:57.875Z,39.23
2023-02-04T09:55:01.189Z,39.45
2023-02-04T10:00:09.857Z,39.31
2023-02-04T10:05:14.759Z,39.42
2023-02-04T10:10:18.408Z,39.67
2023-02-04T10:15:22.752Z,39.51
2023-02-04T10:20:25.622Z,39.54
2023-02-04T10:25:28.373Z,39.84
2023-02-04T10:30:38.957Z,39.75
2023-02-04T10:35:46.227Z,39.89
2023-02-04T10:40:49.092Z,39.92
2023-02-04T10:45:58.124Z,39.94
2023-02-04T10:51:00.936Z,39.69
2023-02-04T10:56:04.142Z,39.79
2023-02-04T11:01:11.394Z,39.53
2023-02-04T11:06:15.093Z,39.62
2023-02-04T11:11:18.318Z,39.40
2023-02-04T11:16:27.437Z,39.37
2023-02-04T11:21:41.710Z,39.45
2023-02-04T11:26:44.660Z,39.78
2023-02-04T11:31:59.791Z,39.43
2023-02-04T11:37:13.416Z,38.52
2023-02-04T11:42:21.167Z,38.18
2023-02-04T11:47:25.965Z,37.66
2023-02-04T11:52:28.995Z,37.27
2023-02-04T11:57:38.593Z,36.28
2023-02-04T12:02:47.681Z,36.55
2023-02-04T12:07:50.503Z,36.57
2023-02-04T12:12:57.821Z,36.23
2023-02-04T12:18:07.282Z,35.95
2023-02-04T12:23:10.040Z,35.33
2023-02-04T12:28:12.878Z,35.03
2023-02-04T12:33:17.104Z,34.27
2023-02-04T12:38:20.671Z,33.85
2023-02-04T12:43:26.098Z,33.94
2023-02-04T12:48:31.484Z,33.71
2023-02-04T12:53:34.298Z,33.70
2023-02-04T12:58:37.146Z,33.71
2023-02-04T13:03:41.336Z,33.21
2023-02-04T13:08:44.124Z,33.24
2023-02-04T13:13:46.925Z,33.10
2023-02-04T13:18:51.097Z,32.94
2023-02-04T13:23:53.900Z,32.96
2023-02-04T13:28:56.675Z,32.68
2023-02-04T13:34:00.843Z,32.41
2023-02-04T13:39:03.754Z,32.43
2023-02-04T13:44:06.739Z,32.79
2023-02-04T13:49:10.852Z,33.08
2023-02-04T13:54:13.723Z,33.62
2023-02-04T13:59:16.506Z,34.03
2023-02-04T14:04:20.705Z,34.23
2023-02-04T14:09:25.288Z,34.11
2023-02-04T14:14:28.140Z,34.13
2023-02-04T14:19:32.265Z,34.16
2023-02-04T14:24:35.589Z,34.69
2023-02-04T14:29:38.358Z,34.75
2023-02-04T14:34:42.469Z,34.96
2023-02-04T14:39:45.398Z,34.85
2023-02-04T14:44:48.280Z,35.06
2023-02-04T14:49:52.411Z,35.07
2023-02-04T14:54:55.150Z,34.91
2023-02-04T14:59:58.133Z,34.83
2023-02-04T15:05:02.301Z,34.66
2023-02-04T15:10:05.555Z,34.77
2023-02-04T15:15:09.117Z,34.97
2023-02-04T15:20:13.478Z,34.82
2023-02-04T15:25:17.463Z,35.06
2023-02-04T15:30:20.546Z,35.13
2023-02-04T15:35:24.671Z,34.75
2023-02-04T15:40:29.872Z,34.75
2023-02-04T15:45:32.773Z,35.05
2023-02-04T15:50:36.887Z,35.14
2023-02-04T15:55:39.625Z,35.04
2023-02-04T16:00:42.423Z,35.05
2023-02-04T16:05:46.623Z,35.48
2023-02-04T16:10:49.324Z,35.38
2023-02-04T16:15:52.207Z,35.00
2023-02-04T16:20:56.385Z,35.79
2023-02-04T16:25:59.220Z,36.00
2023-02-04T16:31:02.089Z,36.39
2023-02-04T16:36:08.100Z,36.70
2023-02-04T16:41:11.291Z,36.90
2023-02-04T16:46:15.998Z,36.93
2023-02-04T16:51:20.420Z,37.07
2023-02-04T16:56:23.250Z,37.26
2023-02-04T17:01:26.014Z,37.33
2023-02-04T17:06:31.036Z,37.33
2023-02-04T17:11:33.767Z,37.97
2023-02-04T17:16:36.546Z,39.19
2023-02-04T17:21:40.672Z,40.10
2023-02-04T17:26:43.399Z,40.43
2023-02-04T17:31:46.379Z,40.34
2023-02-04T17:36:50.631Z,40.25
2023-02-04T17:41:53.633Z,40.11
2023-02-04T17:46:58.521Z,40.43
2023-02-04T17:52:02.983Z,40.22
2023-02-04T17:57:15.328Z,39.95
2023-02-04T18:02:24.407Z,39.97
2023-02-04T18:07:28.908Z,40.20
2023-02-04T18:12:31.774Z,40.24
2023-02-04T18:17:34.570Z,40.34
2023-02-04T18:22:38.715Z,40.28
2023-02-04T18:27:41.602Z,39.65
2023-02-04T18:32:44.410Z,39.64
2023-02-04T18:37:48.810Z,39.27
2023-02-04T18:42:51.695Z,39.17
2023-02-04T18:47:54.933Z,38.98
2023-02-04T18:53:01.278Z,39.09
2023-02-04T18:58:20.851Z,39.13
2023-02-04T19:03:26.107Z,39.26
2023-02-04T19:08:33.204Z,39.08
2023-02-04T19:13:39.518Z,39.19
2023-02-04T19:18:42.904Z,39.19
2023-02-04T19:23:47.112Z,38.87
2023-02-04T19:28:51.215Z,39.25
2023-02-04T19:33:55.362Z,39.21
2023-02-04T19:39:00.024Z,39.44
2023-02-04T19:44:36.513Z,39.68
2023-02-04T19:49:40.801Z,39.56
2023-02-04T19:54:44.925Z,39.85
2023-02-04T19:59:47.747Z,39.85
2023-02-04T20:04:53.959Z,40.10
2023-02-04T20:10:00.183Z,40.30
2023-02-04T20:15:03.623Z,40.21
2023-02-04T20:20:18.734Z,40.38
2023-02-04T20:25:44.991Z,40.36
2023-02-04T20:30:48.686Z,40.44
2023-02-04T20:36:23.956Z,40.32
2023-02-04T20:41:28.107Z,40.50
2023-02-04T20:46:31.061Z,40.42
2023-02-04T20:51:35.045Z,40.41
2023-02-04T20:56:40.884Z,40.50
2023-02-04T21:01:44.850Z,40.51
2023-02-04T21:06:51.650Z,40.37
2023-02-04T21:11:56.627Z,40.34
2023-02-04T21:16:59.430Z,40.40
2023-02-04T21:22:02.293Z,40.58
2023-02-04T21:27:06.502Z,40.45
2023-02-04T21:32:09.560Z,40.59
2023-02-04T21:37:12.549Z,40.79
2023-02-04T21:42:16.782Z,40.67
2023-02-04T21:47:19.637Z,40.87
2023-02-04T21:52:22.491Z,40.92
2023-02-04T21:57:26.615Z,41.02
2023-02-04T22:02:29.391Z,40.65
2023-02-04T22:07:32.306Z,40.93
2023-02-04T22:12:37.010Z,40.97
2023-02-04T22:17:39.802Z,40.89
2023-02-04T22:22:43.341Z,40.90
2023-02-04T22:27:47.796Z,40.83
2023-02-04T22:32:50.603Z,40.94
2023-02-04T22:37:53.416Z,41.03
2023-02-04T22:42:57.571Z,40.97
2023-02-04T22:48:00.393Z,40.97
2023-02-04T22:53:03.186Z,40.84
2023-02-04T22:58:07.502Z,40.86
2023-02-04T23:03:10.246Z,40.88
2023-02-04T23:08:13.050Z,41.34
2023-02-04T23:13:17.251Z,41.12
2023-02-04T23:18:20.008Z,41.20
2023-02-04T23:23:23.013Z,41.15
2023-02-04T23:28:27.142Z,40.99
2023-02-04T23:33:29.904Z,41.15
2023-02-04T23:38:32.743Z,41.20
2023-02-04T23:43:36.923Z,41.31
2023-02-04T23:48:39.760Z,41.34
2023-02-04T23:53:42.504Z,41.54
2023-02-04T23:58:46.692Z,41.62
